sensor_id;sensor_type;location;lat;lon;timestamp;temperature;humidity
13256;DHT22;37913;48.370;10.930;2023-05-07T00:01:43;11.30;99.90
13256;DHT22;37913;48.370;10.930;2023-05-07T00:04:10;11.40;99.90
13256;DHT22;37913;48.370;10.930;2023-05-07T00:06:36;11.40;99.90
13256;DHT22;37913;48.370;10.930;2023-05-07T00:09:04;11.30;99.90
13256;DHT22;37913;48.370;10.930;2023-05-07T00:11:32;11.20;99.90
13256;DHT22;37913;48.370;10.930;2023-05-07T00:13:59;11.10;99.90
13256;DHT22;37913;48.370;10.930;2023-05-07T00:16:26;11.20;99.90
13256;DHT22;37913;48.370;10.930;2023-05-07T00:18:53;11.20;99.90
13256;DHT22;37913;48.370;10.930;2023-05-07T00:21:20;11.10;99.90
13256;DHT22;37913;48.370;10.930;2023-05-07T00:23:47;11.10;99.90
13256;DHT22;37913;48.370;10.930;2023-05-07T00:26:14;11.10;99.90
13256;DHT22;37913;48.370;10.930;2023-05-07T00:28:42;11.00;99.90
13256;DHT22;37913;48.370;10.930;2023-05-07T00:31:09;11.00;99.90
13256;DHT22;37913;48.370;10.930;2023-05-07T00:33:37;11.00;99.90
13256;DHT22;37913;48.370;10.930;2023-05-07T00:36:04;11.00;99.90
13256;DHT22;37913;48.370;10.930;2023-05-07T00:38:31;11.10;99.90
13256;DHT22;37913;48.370;10.930;2023-05-07T00:40:58;11.00;99.90
13256;DHT22;37913;48.370;10.930;2023-05-07T00:43:25;11.00;99.90
13256;DHT22;37913;48.370;10.930;2023-05-07T00:45:54;11.00;99.90
13256;DHT22;37913;48.370;10.930;2023-05-07T00:48:21;11.00;99.90
13256;DHT22;37913;48.370;10.930;2023-05-07T00:50:50;11.00;99.90
13256;DHT22;37913;48.370;10.930;2023-05-07T00:53:17;11.00;99.90
13256;DHT22;37913;48.370;10.930;2023-05-07T00:55:44;10.90;99.90
13256;DHT22;37913;48.370;10.930;2023-05-07T00:58:11;10.90;99.90
13256;DHT22;37913;48.370;10.930;2023-05-07T01:00:38;10.80;99.90
13256;DHT22;37913;48.370;10.930;2023-05-07T01:03:06;10.80;99.90
13256;DHT22;37913;48.370;10.930;2023-05-07T01:05:33;10.80;99.90
13256;DHT22;37913;48.370;10.930;2023-05-07T01:08:01;10.90;99.90
13256;DHT22;37913;48.370;10.930;2023-05-07T01:10:29;10.80;99.90
13256;DHT22;37913;48.370;10.930;2023-05-07T01:12:59;10.90;99.90
13256;DHT22;37913;48.370;10.930;2023-05-07T01:15:26;11.00;99.90
13256;DHT22;37913;48.370;10.930;2023-05-07T01:17:53;11.00;99.90
13256;DHT22;37913;48.370;10.930;2023-05-07T01:20:22;11.00;99.90
13256;DHT22;37913;48.370;10.930;2023-05-07T01:23:00;11.00;99.90
13256;DHT22;37913;48.370;10.930;2023-05-07T01:25:28;10.90;99.90
13256;DHT22;37913;48.370;10.930;2023-05-07T01:27:56;10.90;99.90
13256;DHT22;37913;48.370;10.930;2023-05-07T01:30:23;10.80;99.90
13256;DHT22;37913;48.370;10.930;2023-05-07T01:32:52;10.90;99.90
13256;DHT22;37913;48.370;10.930;2023-05-07T01:35:22;10.80;99.90
13256;DHT22;37913;48.370;10.930;2023-05-07T01:37:51;10.80;99.90
13256;DHT22;37913;48.370;10.930;2023-05-07T01:40:19;10.80;99.90
13256;DHT22;37913;48.370;10.930;2023-05-07T01:42:47;10.80;99.90
13256;DHT22;37913;48.370;10.930;2023-05-07T01:45:14;10.70;99.90
13256;DHT22;37913;48.370;10.930;2023-05-07T01:47:42;10.70;99.90
13256;DHT22;37913;48.370;10.930;2023-05-07T01:50:09;10.60;99.90
13256;DHT22;37913;48.370;10.930;2023-05-07T01:52:37;10.60;99.90
13256;DHT22;37913;48.370;10.930;2023-05-07T01:55:06;10.60;99.90
13256;DHT22;37913;48.370;10.930;2023-05-07T01:57:34;10.60;99.90
13256;DHT22;37913;48.370;10.930;2023-05-07T02:00:01;10.70;99.90
13256;DHT22;37913;48.370;10.930;2023-05-07T02:02:31;10.60;99.90
13256;DHT22;37913;48.370;10.930;2023-05-07T02:04:59;10.60;99.90
13256;DHT22;37913;48.370;10.930;2023-05-07T02:07:26;10.70;99.90
13256;DHT22;37913;48.370;10.930;2023-05-07T02:09:53;10.70;99.90
13256;DHT22;37913;48.370;10.930;2023-05-07T02:12:20;10.80;99.90
13256;DHT22;37913;48.370;10.930;2023-05-07T02:14:49;10.70;99.90
13256;DHT22;37913;48.370;10.930;2023-05-07T02:17:16;10.60;99.90
13256;DHT22;37913;48.370;10.930;2023-05-07T02:19:42;10.50;99.90
13256;DHT22;37913;48.370;10.930;2023-05-07T02:22:10;10.50;99.90
13256;DHT22;37913;48.370;10.930;2023-05-07T02:24:37;10.50;99.90
13256;DHT22;37913;48.370;10.930;2023-05-07T02:27:04;10.50;99.90
13256;DHT22;37913;48.370;10.930;2023-05-07T02:29:30;10.40;99.90
13256;DHT22;37913;48.370;10.930;2023-05-07T02:31:59;10.40;99.90
13256;DHT22;37913;48.370;10.930;2023-05-07T02:34:26;10.40;99.90
13256;DHT22;37913;48.370;10.930;2023-05-07T02:36:53;10.40;99.90
13256;DHT22;37913;48.370;10.930;2023-05-07T02:39:19;10.40;99.90
13256;DHT22;37913;48.370;10.930;2023-05-07T02:41:46;10.40;99.90
13256;DHT22;37913;48.370;10.930;2023-05-07T02:44:13;10.40;99.90
13256;DHT22;37913;48.370;10.930;2023-05-07T02:46:40;10.30;99.90
13256;DHT22;37913;48.370;10.930;2023-05-07T02:49:08;10.30;99.90
13256;DHT22;37913;48.370;10.930;2023-05-07T02:51:35;10.30;99.90
13256;DHT22;37913;48.370;10.930;2023-05-07T02:54:02;10.30;99.90
13256;DHT22;37913;48.370;10.930;2023-05-07T02:56:30;10.20;99.90
13256;DHT22;37913;48.370;10.930;2023-05-07T02:58:56;10.20;99.90
13256;DHT22;37913;48.370;10.930;2023-05-07T03:01:24;10.20;99.90
13256;DHT22;37913;48.370;10.930;2023-05-07T03:03:50;10.10;99.90
13256;DHT22;37913;48.370;10.930;2023-05-07T03:06:19;10.10;99.90
13256;DHT22;37913;48.370;10.930;2023-05-07T03:08:46;10.10;99.90
13256;DHT22;37913;48.370;10.930;2023-05-07T03:11:12;10.20;99.90
13256;DHT22;37913;48.370;10.930;2023-05-07T03:13:40;10.10;99.90
13256;DHT22;37913;48.370;10.930;2023-05-07T03:16:07;10.10;99.90
13256;DHT22;37913;48.370;10.930;2023-05-07T03:18:33;10.20;99.90
13256;DHT22;37913;48.370;10.930;2023-05-07T03:21:00;10.20;99.90
13256;DHT22;37913;48.370;10.930;2023-05-07T03:23:29;10.20;99.90
13256;DHT22;37913;48.370;10.930;2023-05-07T03:25:56;10.20;99.90
13256;DHT22;37913;48.370;10.930;2023-05-07T03:28:23;10.20;99.90
13256;DHT22;37913;48.370;10.930;2023-05-07T03:30:50;10.20;99.90
13256;DHT22;37913;48.370;10.930;2023-05-07T03:33:17;10.20;99.90
13256;DHT22;37913;48.370;10.930;2023-05-07T03:35:44;10.20;99.90
13256;DHT22;37913;48.370;10.930;2023-05-07T03:38:11;10.10;99.90
13256;DHT22;37913;48.370;10.930;2023-05-07T03:40:39;10.10;99.90
13256;DHT22;37913;48.370;10.930;2023-05-07T03:43:06;10.20;99.90
13256;DHT22;37913;48.370;10.930;2023-05-07T03:45:33;10.20;99.90
13256;DHT22;37913;48.370;10.930;2023-05-07T03:48:00;10.20;99.90
13256;DHT22;37913;48.370;10.930;2023-05-07T03:50:27;10.20;99.90
13256;DHT22;37913;48.370;10.930;2023-05-07T03:52:54;10.30;99.90
13256;DHT22;37913;48.370;10.930;2023-05-07T03:55:21;10.20;99.90
13256;DHT22;37913;48.370;10.930;2023-05-07T03:57:49;10.20;99.90
13256;DHT22;37913;48.370;10.930;2023-05-07T04:00:16;10.40;99.90
13256;DHT22;37913;48.370;10.930;2023-05-07T04:02:45;10.40;99.90
13256;DHT22;37913;48.370;10.930;2023-05-07T04:05:13;10.20;99.90
13256;DHT22;37913;48.370;10.930;2023-05-07T04:07:40;10.10;99.90
13256;DHT22;37913;48.370;10.930;2023-05-07T04:10:08;9.90;99.90
13256;DHT22;37913;48.370;10.930;2023-05-07T04:12:35;9.90;99.90
13256;DHT22;37913;48.370;10.930;2023-05-07T04:15:04;9.80;99.90
13256;DHT22;37913;48.370;10.930;2023-05-07T04:17:31;9.70;99.90
13256;DHT22;37913;48.370;10.930;2023-05-07T04:19:58;9.80;99.90
13256;DHT22;37913;48.370;10.930;2023-05-07T04:22:25;9.80;99.90
13256;DHT22;37913;48.370;10.930;2023-05-07T04:24:52;9.90;99.90
13256;DHT22;37913;48.370;10.930;2023-05-07T04:27:19;9.90;99.90
13256;DHT22;37913;48.370;10.930;2023-05-07T04:29:45;9.90;99.90
13256;DHT22;37913;48.370;10.930;2023-05-07T04:32:14;10.00;99.90
13256;DHT22;37913;48.370;10.930;2023-05-07T04:34:41;10.00;99.90
13256;DHT22;37913;48.370;10.930;2023-05-07T04:37:08;10.00;99.90
13256;DHT22;37913;48.370;10.930;2023-05-07T04:39:35;10.10;99.90
13256;DHT22;37913;48.370;10.930;2023-05-07T04:42:03;10.20;99.90
13256;DHT22;37913;48.370;10.930;2023-05-07T04:44:29;10.30;99.90
13256;DHT22;37913;48.370;10.930;2023-05-07T04:46:57;10.50;99.90
13256;DHT22;37913;48.370;10.930;2023-05-07T04:49:26;10.80;99.90
13256;DHT22;37913;48.370;10.930;2023-05-07T04:51:53;11.00;99.90
13256;DHT22;37913;48.370;10.930;2023-05-07T04:54:20;11.30;99.90
13256;DHT22;37913;48.370;10.930;2023-05-07T04:56:47;11.50;99.90
13256;DHT22;37913;48.370;10.930;2023-05-07T04:59:14;11.80;99.90
13256;DHT22;37913;48.370;10.930;2023-05-07T05:01:41;12.10;99.90
13256;DHT22;37913;48.370;10.930;2023-05-07T05:04:08;12.40;99.90
13256;DHT22;37913;48.370;10.930;2023-05-07T05:06:38;12.70;99.90
13256;DHT22;37913;48.370;10.930;2023-05-07T05:09:05;13.00;99.90
13256;DHT22;37913;48.370;10.930;2023-05-07T05:11:32;13.30;99.90
13256;DHT22;37913;48.370;10.930;2023-05-07T05:13:59;13.70;99.90
13256;DHT22;37913;48.370;10.930;2023-05-07T05:16:27;14.00;99.90
13256;DHT22;37913;48.370;10.930;2023-05-07T05:18:54;14.30;99.90
13256;DHT22;37913;48.370;10.930;2023-05-07T05:21:21;14.50;99.90
13256;DHT22;37913;48.370;10.930;2023-05-07T05:23:49;14.70;99.90
13256;DHT22;37913;48.370;10.930;2023-05-07T05:26:17;14.70;99.90
13256;DHT22;37913;48.370;10.930;2023-05-07T05:28:44;14.60;99.90
13256;DHT22;37913;48.370;10.930;2023-05-07T05:31:11;14.30;99.90
13256;DHT22;37913;48.370;10.930;2023-05-07T05:33:39;14.30;99.90
13256;DHT22;37913;48.370;10.930;2023-05-07T05:36:07;14.50;99.90
13256;DHT22;37913;48.370;10.930;2023-05-07T05:38:35;14.80;99.90
13256;DHT22;37913;48.370;10.930;2023-05-07T05:41:04;15.20;99.90
13256;DHT22;37913;48.370;10.930;2023-05-07T05:43:31;15.70;99.90
13256;DHT22;37913;48.370;10.930;2023-05-07T05:45:58;16.30;99.90
13256;DHT22;37913;48.370;10.930;2023-05-07T05:48:25;16.80;99.90
13256;DHT22;37913;48.370;10.930;2023-05-07T05:50:52;17.30;99.90
13256;DHT22;37913;48.370;10.930;2023-05-07T05:53:19;17.90;99.90
13256;DHT22;37913;48.370;10.930;2023-05-07T05:55:46;18.10;99.90
13256;DHT22;37913;48.370;10.930;2023-05-07T05:58:15;18.10;99.90
13256;DHT22;37913;48.370;10.930;2023-05-07T06:00:41;18.10;99.90
13256;DHT22;37913;48.370;10.930;2023-05-07T06:03:08;18.10;99.90
13256;DHT22;37913;48.370;10.930;2023-05-07T06:05:36;18.00;99.90
13256;DHT22;37913;48.370;10.930;2023-05-07T06:08:03;18.00;99.90
13256;DHT22;37913;48.370;10.930;2023-05-07T06:10:30;18.40;99.90
13256;DHT22;37913;48.370;10.930;2023-05-07T06:12:57;18.90;99.90
13256;DHT22;37913;48.370;10.930;2023-05-07T06:15:25;19.40;99.90
13256;DHT22;37913;48.370;10.930;2023-05-07T06:17:52;19.60;99.90
13256;DHT22;37913;48.370;10.930;2023-05-07T06:20:21;20.00;99.90
13256;DHT22;37913;48.370;10.930;2023-05-07T06:22:48;20.30;99.90
13256;DHT22;37913;48.370;10.930;2023-05-07T06:25:15;20.60;99.90
13256;DHT22;37913;48.370;10.930;2023-05-07T06:27:42;21.10;99.90
13256;DHT22;37913;48.370;10.930;2023-05-07T06:30:09;21.70;99.90
13256;DHT22;37913;48.370;10.930;2023-05-07T06:32:37;22.00;99.90
13256;DHT22;37913;48.370;10.930;2023-05-07T06:35:05;22.30;99.90
13256;DHT22;37913;48.370;10.930;2023-05-07T06:37:32;22.60;99.90
13256;DHT22;37913;48.370;10.930;2023-05-07T06:39:58;22.20;99.90
13256;DHT22;37913;48.370;10.930;2023-05-07T06:42:25;22.90;99.90
13256;DHT22;37913;48.370;10.930;2023-05-07T06:44:53;23.40;99.90
13256;DHT22;37913;48.370;10.930;2023-05-07T06:47:20;23.90;99.90
13256;DHT22;37913;48.370;10.930;2023-05-07T06:49:48;24.20;99.90
13256;DHT22;37913;48.370;10.930;2023-05-07T06:52:15;25.00;99.90
13256;DHT22;37913;48.370;10.930;2023-05-07T06:54:42;25.40;99.90
13256;DHT22;37913;48.370;10.930;2023-05-07T06:57:09;26.00;99.90
13256;DHT22;37913;48.370;10.930;2023-05-07T06:59:36;26.70;99.90
13256;DHT22;37913;48.370;10.930;2023-05-07T07:02:03;27.20;99.90
13256;DHT22;37913;48.370;10.930;2023-05-07T07:04:30;27.20;99.90
13256;DHT22;37913;48.370;10.930;2023-05-07T07:06:59;27.40;99.90
13256;DHT22;37913;48.370;10.930;2023-05-07T07:09:26;27.90;99.30
13256;DHT22;37913;48.370;10.930;2023-05-07T07:11:53;27.90;98.30
13256;DHT22;37913;48.370;10.930;2023-05-07T07:14:20;27.80;98.00
13256;DHT22;37913;48.370;10.930;2023-05-07T07:16:46;27.80;98.30
13256;DHT22;37913;48.370;10.930;2023-05-07T07:19:13;28.30;97.50
13256;DHT22;37913;48.370;10.930;2023-05-07T07:21:41;29.10;95.90
13256;DHT22;37913;48.370;10.930;2023-05-07T07:24:09;28.20;96.50
13256;DHT22;37913;48.370;10.930;2023-05-07T07:26:36;28.30;96.70
13256;DHT22;37913;48.370;10.930;2023-05-07T07:29:05;28.70;96.20
13256;DHT22;37913;48.370;10.930;2023-05-07T07:31:33;28.80;95.30
13256;DHT22;37913;48.370;10.930;2023-05-07T07:34:00;28.70;95.30
13256;DHT22;37913;48.370;10.930;2023-05-07T07:36:28;29.40;94.40
13256;DHT22;37913;48.370;10.930;2023-05-07T07:38:55;29.80;94.40
13256;DHT22;37913;48.370;10.930;2023-05-07T07:41:24;29.60;94.10
13256;DHT22;37913;48.370;10.930;2023-05-07T07:43:51;30.20;94.40
13256;DHT22;37913;48.370;10.930;2023-05-07T07:46:18;31.30;92.90
13256;DHT22;37913;48.370;10.930;2023-05-07T07:48:45;31.50;91.80
13256;DHT22;37913;48.370;10.930;2023-05-07T07:51:11;31.90;90.60
13256;DHT22;37913;48.370;10.930;2023-05-07T07:53:38;31.60;91.10
13256;DHT22;37913;48.370;10.930;2023-05-07T07:56:06;31.90;90.30
13256;DHT22;37913;48.370;10.930;2023-05-07T07:58:35;31.50;90.30
13256;DHT22;37913;48.370;10.930;2023-05-07T08:01:03;30.10;90.50
13256;DHT22;37913;48.370;10.930;2023-05-07T08:03:30;31.00;90.80
13256;DHT22;37913;48.370;10.930;2023-05-07T08:05:58;31.60;90.80
13256;DHT22;37913;48.370;10.930;2023-05-07T08:08:25;31.60;90.10
13256;DHT22;37913;48.370;10.930;2023-05-07T08:10:52;31.40;89.70
13256;DHT22;37913;48.370;10.930;2023-05-07T08:13:19;31.00;89.00
13256;DHT22;37913;48.370;10.930;2023-05-07T08:15:47;30.70;90.40
13256;DHT22;37913;48.370;10.930;2023-05-07T08:18:14;32.00;89.60
13256;DHT22;37913;48.370;10.930;2023-05-07T08:20:41;33.90;86.10
13256;DHT22;37913;48.370;10.930;2023-05-07T08:23:08;33.70;84.20
13256;DHT22;37913;48.370;10.930;2023-05-07T08:25:36;34.60;80.20
13256;DHT22;37913;48.370;10.930;2023-05-07T08:28:03;32.00;84.00
13256;DHT22;37913;48.370;10.930;2023-05-07T08:30:30;32.40;83.60
13256;DHT22;37913;48.370;10.930;2023-05-07T08:32:59;32.70;83.20
13256;DHT22;37913;48.370;10.930;2023-05-07T08:35:26;33.50;82.10
13256;DHT22;37913;48.370;10.930;2023-05-07T08:37:53;34.00;79.50
13256;DHT22;37913;48.370;10.930;2023-05-07T08:40:21;34.60;77.60
13256;DHT22;37913;48.370;10.930;2023-05-07T08:42:49;33.10;79.30
13256;DHT22;37913;48.370;10.930;2023-05-07T08:45:19;32.80;78.90
13256;DHT22;37913;48.370;10.930;2023-05-07T08:47:49;32.40;79.00
13256;DHT22;37913;48.370;10.930;2023-05-07T08:50:20;32.40;78.60
13256;DHT22;37913;48.370;10.930;2023-05-07T08:52:47;32.00;77.90
13256;DHT22;37913;48.370;10.930;2023-05-07T08:55:14;32.40;79.10
13256;DHT22;37913;48.370;10.930;2023-05-07T08:57:41;33.50;77.90
13256;DHT22;37913;48.370;10.930;2023-05-07T09:00:09;32.60;77.10
13256;DHT22;37913;48.370;10.930;2023-05-07T09:02:36;30.80;79.90
13256;DHT22;37913;48.370;10.930;2023-05-07T09:05:04;32.10;79.70
13256;DHT22;37913;48.370;10.930;2023-05-07T09:07:33;32.50;78.20
13256;DHT22;37913;48.370;10.930;2023-05-07T09:10:02;33.40;77.20
13256;DHT22;37913;48.370;10.930;2023-05-07T09:12:29;34.60;74.20
13256;DHT22;37913;48.370;10.930;2023-05-07T09:14:56;32.80;76.90
13256;DHT22;37913;48.370;10.930;2023-05-07T09:17:23;32.70;73.50
13256;DHT22;37913;48.370;10.930;2023-05-07T09:19:50;32.00;73.00
13256;DHT22;37913;48.370;10.930;2023-05-07T09:22:19;32.10;73.90
13256;DHT22;37913;48.370;10.930;2023-05-07T09:24:49;32.00;73.90
13256;DHT22;37913;48.370;10.930;2023-05-07T09:27:17;32.50;74.30
13256;DHT22;37913;48.370;10.930;2023-05-07T09:29:44;33.00;74.70
13256;DHT22;37913;48.370;10.930;2023-05-07T09:32:11;33.60;69.20
13256;DHT22;37913;48.370;10.930;2023-05-07T09:34:38;33.90;68.70
13256;DHT22;37913;48.370;10.930;2023-05-07T09:37:06;33.80;67.30
13256;DHT22;37913;48.370;10.930;2023-05-07T09:39:39;34.00;67.80
13256;DHT22;37913;48.370;10.930;2023-05-07T09:42:08;32.10;67.10
13256;DHT22;37913;48.370;10.930;2023-05-07T09:44:36;30.60;69.60
13256;DHT22;37913;48.370;10.930;2023-05-07T09:47:05;30.10;69.00
13256;DHT22;37913;48.370;10.930;2023-05-07T09:49:35;31.00;69.20
13256;DHT22;37913;48.370;10.930;2023-05-07T09:52:04;33.20;65.50
13256;DHT22;37913;48.370;10.930;2023-05-07T09:54:34;33.60;62.90
13256;DHT22;37913;48.370;10.930;2023-05-07T09:57:04;34.70;61.80
13256;DHT22;37913;48.370;10.930;2023-05-07T09:59:34;36.20;58.40
13256;DHT22;37913;48.370;10.930;2023-05-07T10:02:04;34.40;59.50
13256;DHT22;37913;48.370;10.930;2023-05-07T10:04:31;34.20;57.70
13256;DHT22;37913;48.370;10.930;2023-05-07T10:06:59;33.70;57.80
13256;DHT22;37913;48.370;10.930;2023-05-07T10:09:27;33.40;59.40
13256;DHT22;37913;48.370;10.930;2023-05-07T10:11:55;34.50;58.20
13256;DHT22;37913;48.370;10.930;2023-05-07T10:14:23;34.10;57.00
13256;DHT22;37913;48.370;10.930;2023-05-07T10:16:53;32.80;58.80
13256;DHT22;37913;48.370;10.930;2023-05-07T10:19:22;32.80;58.90
13256;DHT22;37913;48.370;10.930;2023-05-07T10:21:54;32.20;59.10
13256;DHT22;37913;48.370;10.930;2023-05-07T10:24:26;33.50;58.80
13256;DHT22;37913;48.370;10.930;2023-05-07T10:26:53;34.00;56.20
13256;DHT22;37913;48.370;10.930;2023-05-07T10:29:30;35.50;55.60
13256;DHT22;37913;48.370;10.930;2023-05-07T10:32:19;35.60;55.00
13256;DHT22;37913;48.370;10.930;2023-05-07T10:34:54;37.00;53.80
13256;DHT22;37913;48.370;10.930;2023-05-07T10:37:22;36.60;53.20
13256;DHT22;37913;48.370;10.930;2023-05-07T10:39:49;37.10;50.80
13256;DHT22;37913;48.370;10.930;2023-05-07T10:42:16;37.00;50.90
13256;DHT22;37913;48.370;10.930;2023-05-07T10:44:43;36.10;50.40
13256;DHT22;37913;48.370;10.930;2023-05-07T10:47:13;34.40;52.70
13256;DHT22;37913;48.370;10.930;2023-05-07T10:52:45;32.40;56.40
13256;DHT22;37913;48.370;10.930;2023-05-07T10:55:32;30.50;56.70
13256;DHT22;37913;48.370;10.930;2023-05-07T10:58:22;30.80;57.30
13256;DHT22;37913;48.370;10.930;2023-05-07T11:00:50;30.30;57.30
13256;DHT22;37913;48.370;10.930;2023-05-07T11:03:19;30.30;57.30
13256;DHT22;37913;48.370;10.930;2023-05-07T11:05:48;30.90;57.00
13256;DHT22;37913;48.370;10.930;2023-05-07T11:08:52;30.90;57.00
13256;DHT22;37913;48.370;10.930;2023-05-07T11:11:20;30.70;58.10
13256;DHT22;37913;48.370;10.930;2023-05-07T11:13:48;31.40;59.10
13256;DHT22;37913;48.370;10.930;2023-05-07T11:16:17;31.60;58.10
13256;DHT22;37913;48.370;10.930;2023-05-07T11:18:50;31.60;58.10
13256;DHT22;37913;48.370;10.930;2023-05-07T11:21:32;33.90;57.00
13256;DHT22;37913;48.370;10.930;2023-05-07T11:24:00;34.80;56.90
13256;DHT22;37913;48.370;10.930;2023-05-07T11:26:29;34.60;54.70
13256;DHT22;37913;48.370;10.930;2023-05-07T11:28:57;35.70;53.50
13256;DHT22;37913;48.370;10.930;2023-05-07T11:31:26;36.00;54.50
13256;DHT22;37913;48.370;10.930;2023-05-07T11:33:57;35.70;54.20
13256;DHT22;37913;48.370;10.930;2023-05-07T11:36:24;33.50;56.70
13256;DHT22;37913;48.370;10.930;2023-05-07T11:38:52;34.20;55.10
13256;DHT22;37913;48.370;10.930;2023-05-07T11:41:19;33.30;56.00
13256;DHT22;37913;48.370;10.930;2023-05-07T11:43:57;31.90;57.80
13256;DHT22;37913;48.370;10.930;2023-05-07T11:46:26;32.00;59.00
13256;DHT22;37913;48.370;10.930;2023-05-07T11:48:53;34.50;57.80
13256;DHT22;37913;48.370;10.930;2023-05-07T11:51:23;35.00;55.30
13256;DHT22;37913;48.370;10.930;2023-05-07T11:53:53;35.30;54.70
13256;DHT22;37913;48.370;10.930;2023-05-07T11:56:20;32.90;56.60
13256;DHT22;37913;48.370;10.930;2023-05-07T11:58:48;32.60;57.50
13256;DHT22;37913;48.370;10.930;2023-05-07T12:01:15;32.30;58.00
13256;DHT22;37913;48.370;10.930;2023-05-07T12:03:44;31.30;61.20
13256;DHT22;37913;48.370;10.930;2023-05-07T12:06:13;31.20;60.00
13256;DHT22;37913;48.370;10.930;2023-05-07T12:08:43;29.70;60.40
13256;DHT22;37913;48.370;10.930;2023-05-07T12:11:13;31.00;58.90
13256;DHT22;37913;48.370;10.930;2023-05-07T12:13:41;32.00;57.90
13256;DHT22;37913;48.370;10.930;2023-05-07T12:16:09;33.60;56.30
13256;DHT22;37913;48.370;10.930;2023-05-07T12:18:36;32.80;57.00
13256;DHT22;37913;48.370;10.930;2023-05-07T12:21:05;32.00;58.20
13256;DHT22;37913;48.370;10.930;2023-05-07T12:23:34;31.30;58.10
13256;DHT22;37913;48.370;10.930;2023-05-07T12:26:03;31.40;58.00
13256;DHT22;37913;48.370;10.930;2023-05-07T12:28:31;33.70;55.90
13256;DHT22;37913;48.370;10.930;2023-05-07T12:31:02;34.10;55.90
13256;DHT22;37913;48.370;10.930;2023-05-07T12:33:29;34.00;55.20
13256;DHT22;37913;48.370;10.930;2023-05-07T12:35:58;32.10;57.30
13256;DHT22;37913;48.370;10.930;2023-05-07T12:38:25;30.90;60.50
13256;DHT22;37913;48.370;10.930;2023-05-07T12:40:54;32.00;59.50
13256;DHT22;37913;48.370;10.930;2023-05-07T12:43:25;29.90;63.60
13256;DHT22;37913;48.370;10.930;2023-05-07T12:45:55;29.80;62.50
13256;DHT22;37913;48.370;10.930;2023-05-07T12:48:23;30.00;61.20
13256;DHT22;37913;48.370;10.930;2023-05-07T12:50:53;30.00;63.00
13256;DHT22;37913;48.370;10.930;2023-05-07T12:53:22;31.90;61.10
13256;DHT22;37913;48.370;10.930;2023-05-07T12:55:50;32.30;60.20
13256;DHT22;37913;48.370;10.930;2023-05-07T12:58:19;31.10;62.70
13256;DHT22;37913;48.370;10.930;2023-05-07T13:00:50;29.80;64.80
13256;DHT22;37913;48.370;10.930;2023-05-07T13:03:24;31.00;63.40
13256;DHT22;37913;48.370;10.930;2023-05-07T13:05:52;31.00;62.10
13256;DHT22;37913;48.370;10.930;2023-05-07T13:08:30;29.40;66.30
13256;DHT22;37913;48.370;10.930;2023-05-07T13:10:59;29.50;65.50
13256;DHT22;37913;48.370;10.930;2023-05-07T13:13:28;27.70;69.60
13256;DHT22;37913;48.370;10.930;2023-05-07T13:15:57;28.00;67.50
13256;DHT22;37913;48.370;10.930;2023-05-07T13:18:25;28.30;69.30
13256;DHT22;37913;48.370;10.930;2023-05-07T13:20:52;27.20;70.50
13256;DHT22;37913;48.370;10.930;2023-05-07T13:23:19;27.00;73.00
13256;DHT22;37913;48.370;10.930;2023-05-07T13:25:47;27.70;72.60
13256;DHT22;37913;48.370;10.930;2023-05-07T13:28:14;27.80;71.70
13256;DHT22;37913;48.370;10.930;2023-05-07T13:30:41;28.60;71.90
13256;DHT22;37913;48.370;10.930;2023-05-07T13:33:09;28.40;70.20
13256;DHT22;37913;48.370;10.930;2023-05-07T13:35:36;27.70;71.30
13256;DHT22;37913;48.370;10.930;2023-05-07T13:38:03;28.50;69.60
13256;DHT22;37913;48.370;10.930;2023-05-07T13:40:30;29.10;69.60
13256;DHT22;37913;48.370;10.930;2023-05-07T13:42:58;28.70;68.90
13256;DHT22;37913;48.370;10.930;2023-05-07T13:45:27;27.10;72.10
13256;DHT22;37913;48.370;10.930;2023-05-07T13:47:55;27.20;74.00
13256;DHT22;37913;48.370;10.930;2023-05-07T13:50:24;27.40;72.10
13256;DHT22;37913;48.370;10.930;2023-05-07T13:52:52;26.80;74.00
13256;DHT22;37913;48.370;10.930;2023-05-07T13:55:19;26.10;75.90
13256;DHT22;37913;48.370;10.930;2023-05-07T13:57:47;26.10;77.30
13256;DHT22;37913;48.370;10.930;2023-05-07T14:00:14;26.00;75.80
13256;DHT22;37913;48.370;10.930;2023-05-07T14:02:41;25.40;77.40
13256;DHT22;37913;48.370;10.930;2023-05-07T14:05:09;25.90;78.20
13256;DHT22;37913;48.370;10.930;2023-05-07T14:07:37;25.10;78.50
13256;DHT22;37913;48.370;10.930;2023-05-07T14:10:07;25.60;79.40
13256;DHT22;37913;48.370;10.930;2023-05-07T14:12:35;25.20;78.20
13256;DHT22;37913;48.370;10.930;2023-05-07T14:15:02;25.30;79.40
13256;DHT22;37913;48.370;10.930;2023-05-07T14:17:29;25.50;79.00
13256;DHT22;37913;48.370;10.930;2023-05-07T14:19:56;24.80;80.50
13256;DHT22;37913;48.370;10.930;2023-05-07T14:22:24;24.40;81.40
13256;DHT22;37913;48.370;10.930;2023-05-07T14:24:52;24.80;80.20
13256;DHT22;37913;48.370;10.930;2023-05-07T14:27:19;24.70;81.20
13256;DHT22;37913;48.370;10.930;2023-05-07T14:29:46;25.00;81.40
13256;DHT22;37913;48.370;10.930;2023-05-07T14:32:16;24.90;80.50
13256;DHT22;37913;48.370;10.930;2023-05-07T14:34:43;25.10;82.00
13256;DHT22;37913;48.370;10.930;2023-05-07T14:37:11;24.70;83.00
13256;DHT22;37913;48.370;10.930;2023-05-07T14:39:38;24.80;81.80
13256;DHT22;37913;48.370;10.930;2023-05-07T14:42:07;24.70;82.20
13256;DHT22;37913;48.370;10.930;2023-05-07T14:44:34;24.40;83.40
13256;DHT22;37913;48.370;10.930;2023-05-07T14:47:01;24.30;82.90
13256;DHT22;37913;48.370;10.930;2023-05-07T14:49:28;24.50;82.20
13256;DHT22;37913;48.370;10.930;2023-05-07T14:51:57;24.60;82.20
13256;DHT22;37913;48.370;10.930;2023-05-07T14:54:24;24.30;83.30
13256;DHT22;37913;48.370;10.930;2023-05-07T14:56:51;23.80;82.90
13256;DHT22;37913;48.370;10.930;2023-05-07T14:59:20;23.80;83.10
13256;DHT22;37913;48.370;10.930;2023-05-07T15:01:47;23.60;84.10
13256;DHT22;37913;48.370;10.930;2023-05-07T15:04:14;23.70;84.60
13256;DHT22;37913;48.370;10.930;2023-05-07T15:06:41;23.80;85.20
13256;DHT22;37913;48.370;10.930;2023-05-07T15:09:08;23.60;86.50
13256;DHT22;37913;48.370;10.930;2023-05-07T15:11:35;23.40;87.10
13256;DHT22;37913;48.370;10.930;2023-05-07T15:14:02;23.40;87.30
13256;DHT22;37913;48.370;10.930;2023-05-07T15:16:30;23.40;85.80
13256;DHT22;37913;48.370;10.930;2023-05-07T15:18:58;23.20;86.80
13256;DHT22;37913;48.370;10.930;2023-05-07T15:21:25;23.30;85.80
13256;DHT22;37913;48.370;10.930;2023-05-07T15:23:53;23.00;87.10
13256;DHT22;37913;48.370;10.930;2023-05-07T15:26:20;22.90;86.90